createdAt,value
2022-12-26T00:01:05.999Z,5.20
2022-12-26T00:03:32.785Z,5.93
2022-12-26T00:05:59.563Z,4.63
2022-12-26T00:08:27.656Z,6.77
2022-12-26T00:10:54.602Z,6.93
2022-12-26T00:13:38.899Z,3.70
2022-12-26T00:16:10.174Z,5.60
2022-12-26T00:18:37.023Z,4.77
2022-12-26T00:21:04.058Z,5.27
2022-12-26T00:23:33.315Z,4.63
2022-12-26T00:26:03.096Z,3.73
2022-12-26T00:28:30.021Z,4.87
2022-12-26T00:30:57.088Z,7.37
2022-12-26T00:33:23.757Z,7.27
2022-12-26T00:35:50.476Z,5.73
2022-12-26T00:38:17.208Z,3.73
2022-12-26T00:40:45.227Z,4.77
2022-12-26T00:43:12.055Z,6.30
2022-12-26T00:45:38.728Z,3.60
2022-12-26T00:48:05.878Z,6.10
2022-12-26T00:50:34.885Z,5.00
2022-12-26T00:53:01.876Z,7.10
2022-12-26T00:55:28.564Z,7.30
2022-12-26T00:57:56.637Z,5.20
2022-12-26T01:00:23.672Z,5.10
2022-12-26T01:02:50.650Z,4.80
2022-12-26T01:05:17.836Z,5.70
2022-12-26T01:08:21.336Z,7.00
2022-12-26T01:10:31.216Z,5.00
2022-12-26T01:12:59.238Z,4.80
2022-12-26T01:15:25.894Z,7.53
2022-12-26T01:17:52.582Z,4.97
2022-12-26T01:20:19.356Z,6.53
2022-12-26T01:22:46.053Z,3.90
2022-12-26T01:25:12.729Z,4.47
2022-12-26T01:27:39.395Z,4.83
2022-12-26T01:30:09.090Z,4.70
2022-12-26T01:32:35.779Z,7.23
2022-12-26T01:35:02.425Z,4.43
2022-12-26T01:37:29.201Z,5.40
2022-12-26T01:39:55.987Z,5.07
2022-12-26T01:42:24.510Z,6.20
2022-12-26T01:45:24.749Z,6.37
2022-12-26T01:47:58.452Z,5.90
2022-12-26T01:50:30.293Z,5.10
2022-12-26T01:53:01.246Z,7.10
2022-12-26T01:55:29.960Z,3.93
2022-12-26T01:58:00.915Z,5.20
2022-12-26T02:00:29.361Z,6.77
2022-12-26T02:02:56.461Z,5.30
2022-12-26T02:05:24.124Z,6.37
2022-12-26T02:07:50.798Z,4.63
2022-12-26T02:10:22.068Z,3.90
2022-12-26T02:12:50.345Z,10.30
2022-12-26T02:15:17.939Z,3.80
2022-12-26T02:17:45.963Z,3.70
2022-12-26T02:20:18.867Z,6.83
2022-12-26T02:23:38.446Z,4.80
2022-12-26T02:26:29.889Z,2.93
2022-12-26T02:29:35.962Z,5.00
2022-12-26T02:32:11.800Z,4.20
2022-12-26T02:34:50.874Z,3.87
2022-12-26T02:37:30.231Z,3.73
2022-12-26T02:40:09.826Z,4.83
2022-12-26T02:42:46.087Z,5.73
2022-12-26T02:45:20.171Z,3.23
2022-12-26T02:47:53.838Z,4.50
2022-12-26T02:50:29.926Z,7.30
2022-12-26T02:53:07.598Z,6.83
2022-12-26T02:55:37.080Z,3.37
2022-12-26T02:58:06.731Z,4.67
2022-12-26T03:00:36.606Z,3.40
2022-12-26T03:03:09.304Z,5.43
2022-12-26T03:05:39.877Z,5.40
2022-12-26T03:08:09.553Z,5.27
2022-12-26T03:10:37.765Z,4.20
2022-12-26T03:13:07.758Z,5.60
2022-12-26T03:15:38.297Z,3.30
2022-12-26T03:18:07.797Z,4.90
2022-12-26T03:20:36.797Z,4.30
2022-12-26T03:23:07.518Z,4.10
2022-12-26T03:25:39.970Z,6.13
2022-12-26T03:28:06.652Z,4.30
2022-12-26T03:30:33.497Z,4.57
2022-12-26T03:33:00.306Z,3.70
2022-12-26T03:35:32.629Z,3.20
2022-12-26T03:38:04.645Z,3.07
2022-12-26T03:40:51.188Z,4.00
2022-12-26T03:43:33.336Z,3.93
2022-12-26T03:46:11.271Z,3.67
2022-12-26T03:48:45.285Z,3.60
2022-12-26T03:51:20.415Z,5.13
2022-12-26T03:53:54.286Z,3.40
2022-12-26T03:56:32.856Z,4.40
2022-12-26T03:59:05.228Z,2.80
2022-12-26T04:01:33.332Z,3.77
2022-12-26T04:04:02.270Z,5.63
2022-12-26T04:06:36.493Z,3.00
2022-12-26T04:09:08.256Z,3.10
2022-12-26T04:11:38.073Z,4.03
2022-12-26T04:14:10.435Z,2.73
2022-12-26T04:16:41.040Z,2.77
2022-12-26T04:19:17.517Z,4.33
2022-12-26T04:21:49.376Z,2.67
2022-12-26T04:24:20.693Z,3.23
2022-12-26T04:26:53.687Z,3.23
2022-12-26T04:29:20.409Z,2.53
2022-12-26T04:31:53.105Z,1.90
2022-12-26T04:34:26.157Z,1.77
2022-12-26T04:36:59.073Z,3.23
2022-12-26T04:39:31.052Z,2.53
2022-12-26T04:41:59.157Z,2.00
2022-12-26T04:44:28.911Z,2.90
2022-12-26T04:46:56.693Z,2.63
2022-12-26T04:49:23.454Z,1.80
2022-12-26T04:51:50.474Z,5.30
2022-12-26T04:54:18.935Z,2.30
2022-12-26T04:56:45.710Z,2.77
2022-12-26T04:59:12.589Z,1.40
2022-12-26T05:01:39.429Z,1.73
2022-12-26T05:04:06.228Z,1.40
2022-12-26T05:06:32.867Z,1.43
2022-12-26T05:08:59.573Z,1.67
2022-12-26T05:11:28.888Z,1.60
2022-12-26T05:13:56.587Z,2.20
2022-12-26T05:16:24.942Z,1.80
2022-12-26T05:18:51.766Z,1.70
2022-12-26T05:21:18.879Z,1.80
2022-12-26T05:23:45.676Z,1.87
2022-12-26T05:26:16.330Z,1.63
2022-12-26T05:28:44.365Z,1.90
2022-12-26T05:31:11.980Z,2.47
2022-12-26T05:33:38.750Z,2.50
2022-12-26T05:36:05.889Z,3.20
2022-12-26T05:38:32.746Z,1.43
2022-12-26T05:40:59.395Z,1.77
2022-12-26T05:43:26.080Z,1.40
2022-12-26T05:45:54.147Z,1.50
2022-12-26T05:48:20.903Z,1.50
2022-12-26T05:50:47.698Z,1.57
2022-12-26T05:53:14.389Z,1.30
2022-12-26T05:55:41.460Z,2.00
2022-12-26T05:58:08.145Z,4.20
2022-12-26T06:00:34.885Z,2.60
2022-12-26T06:03:03.096Z,1.57
2022-12-26T06:05:29.871Z,2.67
2022-12-26T06:07:56.523Z,1.80
2022-12-26T06:10:23.229Z,2.50
2022-12-26T06:12:49.890Z,1.83
2022-12-26T06:15:16.680Z,1.23
2022-12-26T06:17:43.354Z,1.27
2022-12-26T06:20:11.964Z,1.30
2022-12-26T06:22:38.681Z,1.53
2022-12-26T06:25:06.272Z,2.30
2022-12-26T06:27:33.083Z,1.00
2022-12-26T06:29:59.737Z,1.20
2022-12-26T06:32:26.452Z,1.47
2022-12-26T06:34:53.137Z,1.23
2022-12-26T06:37:21.198Z,1.47
2022-12-26T06:39:47.921Z,1.13
2022-12-26T06:42:14.604Z,2.50
2022-12-26T06:44:41.290Z,1.13
2022-12-26T06:47:07.997Z,1.63
2022-12-26T06:49:34.687Z,3.60
2022-12-26T06:52:01.359Z,1.83
2022-12-26T06:54:29.374Z,1.47
2022-12-26T06:56:56.010Z,1.93
2022-12-26T06:59:22.775Z,2.47
2022-12-26T07:01:49.708Z,1.07
2022-12-26T07:04:16.548Z,1.47
2022-12-26T07:06:43.287Z,1.40
2022-12-26T07:09:11.913Z,1.53
2022-12-26T07:11:41.404Z,1.87
2022-12-26T07:14:08.820Z,2.63
2022-12-26T07:16:36.345Z,5.03
2022-12-26T07:19:03.617Z,1.30
2022-12-26T07:21:34.845Z,1.37
2022-12-26T07:24:05.378Z,1.60
2022-12-26T07:26:32.050Z,3.43
2022-12-26T07:29:00.182Z,0.70
2022-12-26T07:31:27.248Z,1.83
2022-12-26T07:33:55.681Z,3.33
2022-12-26T07:36:23.445Z,2.10
2022-12-26T07:38:50.269Z,2.63
2022-12-26T07:41:16.946Z,2.20
2022-12-26T07:43:43.584Z,2.30
2022-12-26T07:46:11.751Z,1.13
2022-12-26T07:48:38.430Z,1.40
2022-12-26T07:51:05.409Z,1.50
2022-12-26T07:53:32.060Z,2.00
2022-12-26T07:55:59.042Z,1.60
2022-12-26T07:58:26.115Z,2.03
2022-12-26T08:00:52.887Z,1.03
2022-12-26T08:03:20.982Z,1.20
2022-12-26T08:05:48.720Z,3.00
2022-12-26T08:08:15.837Z,1.63
2022-12-26T08:11:19.945Z,2.20
2022-12-26T08:13:46.707Z,2.40
2022-12-26T08:16:14.977Z,1.30
2022-12-26T08:18:43.135Z,1.43
2022-12-26T08:21:10.667Z,1.23
2022-12-26T08:23:37.405Z,1.80
2022-12-26T08:26:05.220Z,2.03
2022-12-26T08:28:31.911Z,4.13
2022-12-26T08:30:58.670Z,1.13
2022-12-26T08:33:25.441Z,1.50
2022-12-26T08:35:53.488Z,1.40
2022-12-26T08:38:20.157Z,2.90
2022-12-26T08:40:54.249Z,5.13
2022-12-26T08:43:34.838Z,4.17
2022-12-26T08:46:09.607Z,2.40
2022-12-26T08:48:38.110Z,2.57
2022-12-26T08:51:08.008Z,3.13
2022-12-26T08:53:35.847Z,2.00
2022-12-26T08:56:03.843Z,1.90
2022-12-26T08:58:30.807Z,1.70
2022-12-26T09:01:06.887Z,1.40
2022-12-26T09:03:33.867Z,1.10
2022-12-26T09:06:05.654Z,1.43
2022-12-26T09:08:36.662Z,3.00
2022-12-26T09:11:04.770Z,2.67
2022-12-26T09:13:32.405Z,1.47
2022-12-26T09:16:06.057Z,1.83
2022-12-26T09:18:32.734Z,2.43
2022-12-26T09:21:00.595Z,3.60
2022-12-26T09:23:27.387Z,2.30
2022-12-26T09:25:55.496Z,1.23
2022-12-26T09:28:22.641Z,1.40
2022-12-26T09:30:49.535Z,1.80
2022-12-26T09:33:16.298Z,1.33
2022-12-26T09:35:43.042Z,3.60
2022-12-26T09:38:10.021Z,1.53
2022-12-26T09:40:51.041Z,2.27
2022-12-26T09:43:33.639Z,2.07
2022-12-26T09:46:07.571Z,3.50
2022-12-26T09:48:39.582Z,2.00
2022-12-26T09:51:09.013Z,2.07
2022-12-26T09:53:44.492Z,2.03
2022-12-26T09:56:53.116Z,2.83
2022-12-26T09:59:08.480Z,3.73
2022-12-26T10:01:43.869Z,2.90
2022-12-26T10:04:28.589Z,3.90
2022-12-26T10:07:04.247Z,4.93
2022-12-26T10:09:53.198Z,2.37
2022-12-26T10:12:35.991Z,3.13
2022-12-26T10:15:22.271Z,3.17
2022-12-26T10:17:53.324Z,2.53
2022-12-26T10:20:28.520Z,3.47
2022-12-26T10:23:10.078Z,2.80
2022-12-26T10:25:42.826Z,3.70
2022-12-26T10:28:17.656Z,4.40
2022-12-26T10:30:47.401Z,3.43
2022-12-26T10:33:18.461Z,2.70
2022-12-26T10:35:46.846Z,2.30
2022-12-26T10:38:25.625Z,3.80
2022-12-26T10:41:03.743Z,2.93
2022-12-26T10:43:32.919Z,4.23
2022-12-26T10:46:21.813Z,3.40
2022-12-26T10:48:51.592Z,3.23
2022-12-26T10:51:18.553Z,3.13
2022-12-26T10:53:49.530Z,3.83
2022-12-26T10:56:18.502Z,4.83
2022-12-26T10:58:46.174Z,3.20
2022-12-26T11:01:38.333Z,5.03
2022-12-26T11:04:07.093Z,3.97
2022-12-26T11:06:37.671Z,3.83
2022-12-26T11:09:05.168Z,4.33
2022-12-26T11:11:34.189Z,4.87
2022-12-26T11:14:02.809Z,4.00
2022-12-26T11:16:34.102Z,4.60
2022-12-26T11:19:02.452Z,4.70
2022-12-26T11:21:31.323Z,7.93
2022-12-26T11:24:16.695Z,4.77
2022-12-26T11:26:43.438Z,5.30
2022-12-26T11:29:14.551Z,5.10
2022-12-26T11:31:43.645Z,4.47
2022-12-26T11:34:17.903Z,5.37
2022-12-26T11:36:49.900Z,5.40
2022-12-26T11:39:24.597Z,6.50
2022-12-26T11:41:52.339Z,5.70
2022-12-26T11:44:38.807Z,5.80
2022-12-26T11:47:10.414Z,6.20
2022-12-26T11:49:46.299Z,4.50
2022-12-26T11:52:35.964Z,8.70
2022-12-26T11:55:19.403Z,5.40
2022-12-26T11:57:58.629Z,6.50
2022-12-26T12:00:26.779Z,4.60
2022-12-26T12:02:53.809Z,5.03
2022-12-26T12:05:38.163Z,6.77
2022-12-26T12:08:20.707Z,5.10
2022-12-26T12:11:12.817Z,5.87
2022-12-26T12:14:03.357Z,4.40
2022-12-26T12:16:56.079Z,5.60
2022-12-26T12:20:26.155Z,4.30
2022-12-26T12:23:13.600Z,4.83
2022-12-26T12:26:03.056Z,3.47
2022-12-26T12:28:47.367Z,3.80
2022-12-26T12:31:21.155Z,3.63
2022-12-26T12:33:55.468Z,3.00
2022-12-26T12:36:36.677Z,2.30
2022-12-26T12:39:11.671Z,3.03
2022-12-26T12:42:03.636Z,1.67
2022-12-26T12:44:43.578Z,1.90
2022-12-26T12:47:19.375Z,3.23
2022-12-26T12:49:58.236Z,1.93
2022-12-26T12:52:39.715Z,1.70
2022-12-26T12:55:28.772Z,3.03
2022-12-26T12:58:02.710Z,2.60
2022-12-26T13:00:34.945Z,1.57
2022-12-26T13:03:09.114Z,1.30
2022-12-26T13:05:44.001Z,3.83
2022-12-26T13:08:15.297Z,2.13
2022-12-26T13:10:49.158Z,1.87
2022-12-26T13:13:21.790Z,2.37
2022-12-26T13:15:52.794Z,3.30
2022-12-26T13:18:22.664Z,3.40
2022-12-26T13:20:53.980Z,1.60
2022-12-26T13:23:28.259Z,2.13
2022-12-26T13:26:06.476Z,5.80
2022-12-26T13:28:39.479Z,1.73
2022-12-26T13:31:06.715Z,1.43
2022-12-26T13:33:34.620Z,2.47
2022-12-26T13:36:03.803Z,3.33
2022-12-26T13:39:03.699Z,3.63
2022-12-26T13:41:32.159Z,2.77
2022-12-26T13:44:04.661Z,1.30
2022-12-26T13:46:56.428Z,1.30
2022-12-26T13:49:31.977Z,2.30
2022-12-26T13:52:33.302Z,1.30
2022-12-26T13:55:42.688Z,2.30
2022-12-26T13:58:29.113Z,1.40
2022-12-26T14:01:03.851Z,3.70
2022-12-26T14:03:53.242Z,2.80
2022-12-26T14:06:50.558Z,1.50
2022-12-26T14:09:45.698Z,1.10
2022-12-26T14:12:26.341Z,1.33
2022-12-26T14:15:16.057Z,1.53
2022-12-26T14:17:54.137Z,4.27
2022-12-26T14:20:39.053Z,1.00
2022-12-26T14:23:20.308Z,1.43
2022-12-26T14:25:52.474Z,0.80
2022-12-26T14:28:25.646Z,2.90
2022-12-26T14:31:08.827Z,2.60
2022-12-26T14:33:39.036Z,1.43
2022-12-26T14:36:28.094Z,1.67
2022-12-26T14:39:01.411Z,1.80
2022-12-26T14:41:28.402Z,2.30
2022-12-26T14:43:58.131Z,1.70
2022-12-26T14:46:59.549Z,2.87
2022-12-26T14:49:38.515Z,2.00
2022-12-26T14:52:32.591Z,1.43
2022-12-26T14:54:59.502Z,3.73
2022-12-26T14:57:53.758Z,1.60
2022-12-26T15:00:42.135Z,1.20
2022-12-26T15:03:47.931Z,4.00
2022-12-26T15:06:59.910Z,1.73
2022-12-26T15:09:54.093Z,2.50
2022-12-26T15:12:59.259Z,1.80
2022-12-26T15:15:34.137Z,0.90
2022-12-26T15:18:25.747Z,1.33
2022-12-26T15:21:24.873Z,1.43
2022-12-26T15:25:08.666Z,2.10
2022-12-26T15:27:41.440Z,2.07
2022-12-26T15:30:19.016Z,1.40
2022-12-26T15:32:55.361Z,4.53
2022-12-26T15:35:27.979Z,2.37
2022-12-26T15:38:32.630Z,1.13
2022-12-26T15:41:12.602Z,4.00
2022-12-26T15:44:04.283Z,1.73
2022-12-26T15:46:35.391Z,2.97
2022-12-26T15:49:24.503Z,3.10
2022-12-26T15:52:01.278Z,4.50
2022-12-26T15:54:49.791Z,2.87
2022-12-26T15:57:25.650Z,2.87
2022-12-26T16:00:05.362Z,3.63
2022-12-26T16:02:38.801Z,2.53
2022-12-26T16:05:27.983Z,3.73
2022-12-26T16:08:02.343Z,3.43
2022-12-26T16:10:32.437Z,4.17
2022-12-26T16:13:03.616Z,4.20
2022-12-26T16:15:32.858Z,6.93
2022-12-26T16:18:13.832Z,2.93
2022-12-26T16:20:40.881Z,2.63
2022-12-26T16:23:13.630Z,3.07
2022-12-26T16:25:46.791Z,2.30
2022-12-26T16:28:13.814Z,4.80
2022-12-26T16:30:40.585Z,7.03
2022-12-26T16:33:07.484Z,1.57
2022-12-26T16:35:37.621Z,4.73
2022-12-26T16:38:07.704Z,3.60
2022-12-26T16:40:41.430Z,2.33
2022-12-26T16:43:24.496Z,1.97
2022-12-26T16:45:52.748Z,3.77
2022-12-26T16:48:22.044Z,2.10
2022-12-26T16:50:51.746Z,3.33
2022-12-26T16:53:20.893Z,3.80
2022-12-26T16:55:51.083Z,3.27
2022-12-26T16:58:23.588Z,5.60
2022-12-26T17:01:01.192Z,3.17
2022-12-26T17:03:37.306Z,3.20
2022-12-26T17:06:07.337Z,3.90
2022-12-26T17:08:34.229Z,2.97
2022-12-26T17:11:01.072Z,4.20
2022-12-26T17:13:29.601Z,3.47
2022-12-26T17:15:58.697Z,3.67
2022-12-26T17:18:35.849Z,1.77
2022-12-26T17:21:20.342Z,2.17
2022-12-26T17:24:22.108Z,2.63
2022-12-26T17:26:52.878Z,2.20
2022-12-26T17:29:45.073Z,2.13
2022-12-26T17:32:13.922Z,4.17
2022-12-26T17:34:41.120Z,3.03
2022-12-26T17:37:19.541Z,2.40
2022-12-26T17:39:52.682Z,2.20
2022-12-26T17:42:19.486Z,5.60
2022-12-26T17:44:47.611Z,1.63
2022-12-26T17:47:18.430Z,3.10
2022-12-26T17:49:45.326Z,2.20
2022-12-26T17:52:13.869Z,1.17
2022-12-26T17:54:41.302Z,2.10
2022-12-26T17:57:16.249Z,3.93
2022-12-26T17:59:42.921Z,8.47
2022-12-26T18:02:11.120Z,4.53
2022-12-26T18:04:38.069Z,3.27
2022-12-26T18:07:05.362Z,3.60
2022-12-26T18:09:32.244Z,5.17
2022-12-26T18:11:59.033Z,3.17
2022-12-26T18:14:25.763Z,5.67
2022-12-26T18:16:52.521Z,3.97
2022-12-26T18:19:20.685Z,5.77
2022-12-26T18:21:47.731Z,3.67
2022-12-26T18:24:14.435Z,2.63
2022-12-26T18:26:41.323Z,2.17
2022-12-26T18:29:09.471Z,5.73
2022-12-26T18:31:36.249Z,5.60
2022-12-26T18:34:03.142Z,8.43
2022-12-26T18:36:34.832Z,1.57
2022-12-26T18:39:02.260Z,3.23
2022-12-26T18:41:28.978Z,2.03
2022-12-26T18:43:55.776Z,3.70
2022-12-26T18:46:23.967Z,9.37
2022-12-26T18:48:51.264Z,2.17
2022-12-26T18:51:18.036Z,4.47
2022-12-26T18:53:46.330Z,5.77
2022-12-26T18:56:14.640Z,4.90
2022-12-26T18:58:41.370Z,3.90
2022-12-26T19:01:08.271Z,7.20
2022-12-26T19:03:35.167Z,2.90
2022-12-26T19:06:01.996Z,6.37
2022-12-26T19:08:28.681Z,4.20
2022-12-26T19:10:56.825Z,3.63
2022-12-26T19:13:25.717Z,3.80
2022-12-26T19:15:52.500Z,5.13
2022-12-26T19:18:19.318Z,5.90
2022-12-26T19:20:46.006Z,3.80
2022-12-26T19:23:12.724Z,3.20
2022-12-26T19:25:39.746Z,4.23
2022-12-26T19:28:08.123Z,5.53
2022-12-26T19:30:38.690Z,7.40
2022-12-26T19:33:06.068Z,4.57
2022-12-26T19:35:32.863Z,3.90
2022-12-26T19:38:01.354Z,5.97
2022-12-26T19:40:28.059Z,7.07
2022-12-26T19:42:54.764Z,8.70
2022-12-26T19:45:22.998Z,7.13
2022-12-26T19:47:49.692Z,12.40
2022-12-26T19:50:16.648Z,5.23
2022-12-26T19:52:43.493Z,5.63
2022-12-26T19:55:13.046Z,7.87
2022-12-26T19:57:39.760Z,3.50
2022-12-26T20:00:09.542Z,4.47
2022-12-26T20:02:37.701Z,7.20
2022-12-26T20:05:05.582Z,8.43
2022-12-26T20:07:33.122Z,6.20
2022-12-26T20:10:07.100Z,6.53
2022-12-26T20:13:18.452Z,7.20
2022-12-26T20:15:47.927Z,7.30
2022-12-26T20:18:17.014Z,6.07
2022-12-26T20:20:58.811Z,5.30
2022-12-26T20:23:33.011Z,8.50
2022-12-26T20:26:20.768Z,11.80
2022-12-26T20:28:48.813Z,9.17
2022-12-26T20:31:17.318Z,9.53
2022-12-26T20:33:50.281Z,6.67
2022-12-26T20:36:23.616Z,8.33
2022-12-26T20:38:51.122Z,8.00
2022-12-26T20:41:18.108Z,6.30
2022-12-26T20:43:46.284Z,7.43
2022-12-26T20:46:17.187Z,7.40
2022-12-26T20:48:45.917Z,4.90
2022-12-26T20:51:14.916Z,10.13
2022-12-26T20:53:42.418Z,10.47
2022-12-26T20:56:09.958Z,3.73
2022-12-26T20:58:37.909Z,11.73
2022-12-26T21:01:07.126Z,7.10
2022-12-26T21:03:37.127Z,6.43
2022-12-26T21:06:15.116Z,11.07
2022-12-26T21:08:44.301Z,11.33
2022-12-26T21:11:13.238Z,6.00
2022-12-26T21:13:41.996Z,5.73
2022-12-26T21:16:10.298Z,9.87
2022-12-26T21:18:37.798Z,4.13
2022-12-26T21:21:12.915Z,10.30
2022-12-26T21:23:40.078Z,5.37
2022-12-26T21:26:07.432Z,7.73
2022-12-26T21:28:36.839Z,7.20
2022-12-26T21:31:06.260Z,2.13
2022-12-26T21:33:35.030Z,4.00
2022-12-26T21:36:10.603Z,5.37
2022-12-26T21:38:37.616Z,5.73
2022-12-26T21:41:07.055Z,11.87
2022-12-26T21:43:34.130Z,12.03
2022-12-26T21:46:06.494Z,6.23
2022-12-26T21:48:33.515Z,7.90
2022-12-26T21:51:02.658Z,10.70
2022-12-26T21:53:31.038Z,5.73
2022-12-26T21:56:04.487Z,7.83
2022-12-26T21:58:34.372Z,6.83
2022-12-26T22:01:01.673Z,6.10
2022-12-26T22:06:59.827Z,9.00
2022-12-26T22:09:28.160Z,4.70
2022-12-26T22:11:55.060Z,12.73
2022-12-26T22:14:22.012Z,6.40
2022-12-26T22:16:52.891Z,6.30
2022-12-26T22:19:19.780Z,8.90
2022-12-26T22:21:46.677Z,4.87
2022-12-26T22:24:13.707Z,7.37
2022-12-26T22:26:42.140Z,5.97
2022-12-26T22:29:09.169Z,9.23
2022-12-26T22:31:38.348Z,4.90
2022-12-26T22:34:09.723Z,4.40
2022-12-26T22:36:36.496Z,5.63
2022-12-26T22:39:03.690Z,6.33
2022-12-26T22:41:30.546Z,3.83
2022-12-26T22:43:58.603Z,5.87
2022-12-26T22:46:25.342Z,13.10
2022-12-26T22:48:52.099Z,10.07
2022-12-26T22:51:20.345Z,8.73
2022-12-26T22:53:47.514Z,9.53
2022-12-26T22:56:14.433Z,7.90
2022-12-26T22:58:41.833Z,11.63
2022-12-26T23:01:15.111Z,12.70
2022-12-26T23:03:42.041Z,7.60
2022-12-26T23:06:23.872Z,15.07
2022-12-26T23:08:53.305Z,13.30
2022-12-26T23:11:21.064Z,8.87
2022-12-26T23:13:48.070Z,8.93
2022-12-26T23:16:24.622Z,9.57
2022-12-26T23:18:53.977Z,10.53
2022-12-26T23:21:25.867Z,9.97
2022-12-26T23:23:52.580Z,5.93
2022-12-26T23:26:19.294Z,5.83
2022-12-26T23:28:45.955Z,6.97
2022-12-26T23:31:12.781Z,10.23
2022-12-26T23:33:40.898Z,14.13
2022-12-26T23:36:08.229Z,6.37
2022-12-26T23:38:34.944Z,7.20
2022-12-26T23:41:01.801Z,11.07
2022-12-26T23:43:28.475Z,13.67
2022-12-26T23:45:55.188Z,5.40
2022-12-26T23:48:21.926Z,10.40
2022-12-26T23:50:49.900Z,7.77
2022-12-26T23:53:16.663Z,8.63
2022-12-26T23:55:43.340Z,5.83
2022-12-26T23:58:10.052Z,12.13
